createdAt,value
2023-03-17T00:01:54.687Z,100.00
2023-03-17T00:04:24.501Z,100.00
2023-03-17T00:06:52.914Z,100.00
2023-03-17T00:09:22.442Z,100.00
2023-03-17T00:11:50.189Z,100.00
2023-03-17T00:14:19.950Z,100.00
2023-03-17T00:16:52.825Z,100.00
2023-03-17T00:19:33.288Z,100.00
2023-03-17T00:22:01.680Z,100.00
2023-03-17T00:24:30.046Z,100.00
2023-03-17T00:26:57.486Z,100.00
2023-03-17T00:29:25.577Z,100.00
2023-03-17T00:31:53.660Z,100.00
2023-03-17T00:34:23.499Z,100.00
2023-03-17T00:36:52.397Z,100.00
2023-03-17T00:39:19.983Z,100.00
2023-03-17T00:41:50.355Z,100.00
2023-03-17T00:44:18.670Z,100.00
2023-03-17T00:46:46.600Z,100.00
2023-03-17T00:49:21.378Z,100.00
2023-03-17T00:51:49.897Z,100.00
2023-03-17T00:54:19.566Z,100.00
2023-03-17T00:56:48.523Z,100.00
2023-03-17T00:59:26.168Z,100.00
2023-03-17T01:01:54.104Z,100.00
2023-03-17T01:04:21.834Z,100.00
2023-03-17T01:06:50.560Z,100.00
2023-03-17T01:09:20.911Z,100.00
2023-03-17T01:11:49.280Z,100.00
2023-03-17T01:14:17.054Z,100.00
2023-03-17T01:16:44.904Z,100.00
2023-03-17T01:19:13.813Z,100.00
2023-03-17T01:21:42.603Z,100.00
2023-03-17T01:24:10.828Z,100.00
2023-03-17T01:26:39.085Z,100.00
2023-03-17T01:29:08.023Z,100.00
2023-03-17T01:31:35.550Z,100.00
2023-03-17T01:34:04.430Z,100.00
2023-03-17T01:36:31.702Z,100.00
2023-03-17T01:38:59.599Z,100.00
2023-03-17T01:41:26.917Z,100.00
2023-03-17T01:43:54.456Z,100.00
2023-03-17T01:46:34.225Z,100.00
2023-03-17T01:49:17.492Z,100.00
2023-03-17T01:51:54.618Z,100.00
2023-03-17T01:54:43.369Z,100.00
2023-03-17T01:57:18.629Z,100.00
2023-03-17T01:59:55.529Z,100.00
2023-03-17T02:02:31.032Z,100.00
2023-03-17T02:04:59.289Z,100.00
2023-03-17T02:07:27.659Z,100.00
2023-03-17T02:09:57.369Z,100.00
2023-03-17T02:12:25.861Z,100.00
2023-03-17T02:14:53.532Z,100.00
2023-03-17T02:17:23.778Z,100.00
2023-03-17T02:19:51.937Z,100.00
2023-03-17T02:22:19.978Z,100.00
2023-03-17T02:24:58.578Z,100.00
2023-03-17T02:27:39.613Z,100.00
2023-03-17T02:30:10.992Z,100.00
2023-03-17T02:32:38.886Z,100.00
2023-03-17T02:35:08.898Z,100.00
2023-03-17T02:37:38.500Z,100.00
2023-03-17T02:40:07.795Z,100.00
2023-03-17T02:42:35.777Z,100.00
2023-03-17T02:45:03.493Z,100.00
2023-03-17T02:47:30.805Z,100.00
2023-03-17T02:49:58.925Z,100.00
2023-03-17T02:52:26.424Z,100.00
2023-03-17T02:54:53.893Z,100.00
2023-03-17T02:57:21.543Z,100.00
2023-03-17T02:59:49.201Z,100.00
2023-03-17T03:02:16.966Z,100.00
2023-03-17T03:04:44.557Z,100.00
2023-03-17T03:07:12.367Z,100.00
2023-03-17T03:09:40.078Z,100.00
2023-03-17T03:12:10.123Z,100.00
2023-03-17T03:14:37.797Z,100.00
2023-03-17T03:17:05.491Z,100.00
2023-03-17T03:19:33.063Z,100.00
2023-03-17T03:22:00.350Z,100.00
2023-03-17T03:24:28.048Z,100.00
2023-03-17T03:26:55.280Z,100.00
2023-03-17T03:29:23.078Z,100.00
2023-03-17T03:31:51.039Z,100.00
2023-03-17T03:34:18.831Z,100.00
2023-03-17T03:36:46.086Z,100.00
2023-03-17T03:39:14.547Z,100.00
2023-03-17T03:41:42.415Z,100.00
2023-03-17T03:44:10.091Z,100.00
2023-03-17T03:46:37.346Z,100.00
2023-03-17T03:49:05.145Z,100.00
2023-03-17T03:51:32.350Z,100.00
2023-03-17T03:54:01.330Z,100.00
2023-03-17T03:56:28.619Z,100.00
2023-03-17T03:58:57.223Z,100.00
2023-03-17T04:01:24.823Z,100.00
2023-03-17T04:03:52.288Z,100.00
2023-03-17T04:06:19.536Z,100.00
2023-03-17T04:08:47.132Z,100.00
2023-03-17T04:11:14.395Z,100.00
2023-03-17T04:13:42.045Z,100.00
2023-03-17T04:16:09.416Z,100.00
2023-03-17T04:18:37.090Z,100.00
2023-03-17T04:21:04.532Z,100.00
2023-03-17T04:23:32.144Z,100.00
2023-03-17T04:25:59.366Z,100.00
2023-03-17T04:28:26.972Z,100.00
2023-03-17T04:30:54.250Z,100.00
2023-03-17T04:33:21.946Z,100.00
2023-03-17T04:35:49.273Z,100.00
2023-03-17T04:38:16.947Z,100.00
2023-03-17T04:40:44.222Z,100.00
2023-03-17T04:43:11.769Z,100.00
2023-03-17T04:45:39.039Z,100.00
2023-03-17T04:48:06.617Z,100.00
2023-03-17T04:50:34.514Z,100.00
2023-03-17T04:53:02.178Z,100.00
2023-03-17T04:55:29.407Z,100.00
2023-03-17T04:57:56.925Z,100.00
2023-03-17T05:00:24.403Z,100.00
2023-03-17T05:02:51.973Z,100.00
2023-03-17T05:05:19.192Z,100.00
2023-03-17T05:07:46.800Z,100.00
2023-03-17T05:10:14.092Z,100.00
2023-03-17T05:12:41.711Z,100.00
2023-03-17T05:15:10.106Z,100.00
2023-03-17T05:17:37.684Z,100.00
2023-03-17T05:20:05.799Z,100.00
2023-03-17T05:22:33.307Z,100.00
2023-03-17T05:25:00.571Z,100.00
2023-03-17T05:27:28.317Z,100.00
2023-03-17T05:29:55.550Z,100.00
2023-03-17T05:32:24.040Z,100.00
2023-03-17T05:34:52.144Z,100.00
2023-03-17T05:37:19.649Z,100.00
2023-03-17T05:39:47.034Z,100.00
2023-03-17T05:42:14.524Z,100.00
2023-03-17T05:44:41.752Z,100.00
2023-03-17T05:47:09.494Z,100.00
2023-03-17T05:49:37.046Z,100.00
2023-03-17T05:52:04.634Z,100.00
2023-03-17T05:54:31.877Z,100.00
2023-03-17T05:56:59.471Z,100.00
2023-03-17T05:59:26.750Z,100.00
2023-03-17T06:01:54.263Z,100.00
2023-03-17T06:04:21.972Z,100.00
2023-03-17T06:06:49.598Z,100.00
2023-03-17T06:09:16.797Z,100.00
2023-03-17T06:11:44.356Z,100.00
2023-03-17T06:14:12.163Z,100.00
2023-03-17T06:16:39.657Z,100.00
2023-03-17T06:19:06.971Z,100.00
2023-03-17T06:21:34.545Z,100.00
2023-03-17T06:24:02.021Z,100.00
2023-03-17T06:26:29.540Z,100.00
2023-03-17T06:28:57.562Z,100.00
2023-03-17T06:31:24.695Z,100.00
2023-03-17T06:33:52.255Z,100.00
2023-03-17T06:36:19.686Z,100.00
2023-03-17T06:38:47.398Z,100.00
2023-03-17T06:41:15.125Z,100.00
2023-03-17T06:43:42.642Z,100.00
2023-03-17T06:46:09.922Z,100.00
2023-03-17T06:48:38.330Z,100.00
2023-03-17T06:51:06.392Z,100.00
2023-03-17T06:53:33.953Z,100.00
2023-03-17T06:56:01.207Z,100.00
2023-03-17T06:58:28.749Z,100.00
2023-03-17T07:00:56.186Z,100.00
2023-03-17T07:03:24.250Z,100.00
2023-03-17T07:05:52.158Z,100.00
2023-03-17T07:08:19.819Z,100.00
2023-03-17T07:10:47.010Z,100.00
2023-03-17T07:13:14.757Z,100.00
2023-03-17T07:15:42.822Z,100.00
2023-03-17T07:18:11.222Z,100.00
2023-03-17T07:20:38.527Z,100.00
2023-03-17T07:23:06.287Z,100.00
2023-03-17T07:25:36.817Z,100.00
2023-03-17T07:28:04.901Z,100.00
2023-03-17T07:30:32.679Z,100.00
2023-03-17T07:33:00.295Z,100.00
2023-03-17T07:35:29.091Z,100.00
2023-03-17T07:37:57.269Z,100.00
2023-03-17T07:40:24.865Z,100.00
2023-03-17T07:42:52.719Z,100.00
2023-03-17T07:45:20.022Z,100.00
2023-03-17T07:47:47.511Z,100.00
2023-03-17T07:50:15.522Z,100.00
2023-03-17T07:52:43.021Z,100.00
2023-03-17T07:55:13.071Z,100.00
2023-03-17T07:57:41.638Z,100.00
2023-03-17T08:00:09.951Z,100.00
2023-03-17T08:02:41.181Z,100.00
2023-03-17T08:05:09.441Z,100.00
2023-03-17T08:07:39.677Z,100.00
2023-03-17T08:10:08.214Z,100.00
2023-03-17T08:12:35.986Z,100.00
2023-03-17T08:15:03.654Z,100.00
2023-03-17T08:17:31.916Z,100.00
2023-03-17T08:19:59.298Z,100.00
2023-03-17T08:22:27.848Z,100.00
2023-03-17T08:24:55.729Z,100.00
2023-03-17T08:27:23.445Z,97.62
2023-03-17T08:29:51.226Z,87.72
2023-03-17T08:32:19.006Z,79.77
2023-03-17T08:34:48.069Z,90.20
2023-03-17T08:37:15.575Z,98.16
2023-03-17T08:39:42.760Z,100.00
2023-03-17T08:42:10.294Z,97.53
2023-03-17T08:44:37.825Z,100.00
2023-03-17T08:47:05.579Z,100.00
2023-03-17T08:49:35.006Z,96.30
2023-03-17T08:52:03.542Z,95.26
2023-03-17T08:54:30.849Z,92.01
2023-03-17T08:56:58.583Z,94.70
2023-03-17T08:59:25.815Z,91.41
2023-03-17T09:01:53.371Z,96.14
2023-03-17T09:04:21.650Z,96.81
2023-03-17T09:07:02.401Z,90.14
2023-03-17T09:09:31.245Z,86.26
2023-03-17T09:11:58.905Z,83.74
2023-03-17T09:14:26.287Z,86.74
2023-03-17T09:16:54.609Z,84.87
2023-03-17T09:19:21.986Z,84.57
2023-03-17T09:21:50.412Z,92.27
2023-03-17T09:24:18.916Z,94.16
2023-03-17T09:26:46.539Z,96.50
2023-03-17T09:29:13.746Z,96.08
2023-03-17T09:31:43.092Z,96.19
2023-03-17T09:34:11.135Z,96.47
2023-03-17T09:36:38.926Z,96.82
2023-03-17T09:39:06.717Z,95.53
2023-03-17T09:42:04.641Z,92.53
2023-03-17T09:44:53.559Z,93.84
2023-03-17T09:47:41.641Z,97.09
2023-03-17T09:50:29.446Z,98.30
2023-03-17T09:52:58.551Z,96.00
2023-03-17T09:55:31.781Z,91.64
2023-03-17T09:58:01.079Z,91.95
2023-03-17T10:00:29.801Z,92.35
2023-03-17T10:02:58.630Z,86.62
2023-03-17T10:05:34.836Z,85.13
2023-03-17T10:08:31.332Z,84.11
2023-03-17T10:11:10.977Z,79.63
2023-03-17T10:14:00.875Z,78.87
2023-03-17T10:16:41.856Z,84.36
2023-03-17T10:19:28.525Z,78.76
2023-03-17T10:22:10.487Z,84.12
2023-03-17T10:24:43.663Z,84.15
2023-03-17T10:27:12.529Z,84.21
2023-03-17T10:29:40.902Z,82.66
2023-03-17T10:32:12.667Z,81.70
2023-03-17T10:34:42.501Z,81.58
2023-03-17T10:37:17.681Z,84.21
2023-03-17T10:39:51.895Z,78.03
2023-03-17T10:42:32.325Z,80.49
2023-03-17T10:45:17.710Z,80.85
2023-03-17T10:47:49.104Z,81.91
2023-03-17T10:50:32.510Z,81.66
2023-03-17T10:53:10.922Z,80.70
2023-03-17T10:55:38.433Z,81.84
2023-03-17T10:58:07.968Z,76.38
2023-03-17T11:00:38.653Z,76.88
2023-03-17T11:03:23.039Z,75.27
2023-03-17T11:06:00.609Z,75.18
2023-03-17T11:08:33.063Z,73.64
2023-03-17T11:11:00.700Z,75.43
2023-03-17T11:13:31.141Z,76.21
2023-03-17T11:16:23.534Z,75.95
2023-03-17T11:18:56.689Z,73.20
2023-03-17T11:21:31.876Z,72.86
2023-03-17T11:24:28.527Z,74.70
2023-03-17T11:27:00.572Z,73.48
2023-03-17T11:29:58.369Z,71.76
2023-03-17T11:32:47.887Z,71.59
2023-03-17T11:35:39.908Z,69.03
2023-03-17T11:38:19.823Z,70.44
2023-03-17T11:41:11.062Z,70.56
2023-03-17T11:44:02.237Z,69.56
2023-03-17T11:47:09.105Z,65.31
2023-03-17T11:49:38.815Z,65.17
2023-03-17T11:52:12.772Z,65.14
2023-03-17T11:55:09.666Z,66.10
2023-03-17T11:57:58.688Z,67.30
2023-03-17T12:00:33.813Z,68.02
2023-03-17T12:03:20.882Z,67.44
2023-03-17T12:05:54.901Z,67.89
2023-03-17T12:08:25.071Z,67.07
2023-03-17T12:10:55.667Z,65.32
2023-03-17T12:13:34.579Z,64.60
2023-03-17T12:16:33.809Z,63.21
2023-03-17T12:19:16.957Z,63.68
2023-03-17T12:21:54.369Z,63.36
2023-03-17T12:24:34.545Z,63.16
2023-03-17T12:27:30.353Z,62.21
2023-03-17T12:30:07.964Z,61.61
2023-03-17T12:32:56.126Z,62.08
2023-03-17T12:35:34.962Z,61.11
2023-03-17T12:38:12.277Z,61.01
2023-03-17T12:41:05.753Z,60.27
2023-03-17T12:44:20.693Z,59.14
2023-03-17T12:47:25.817Z,60.68
2023-03-17T12:50:05.969Z,62.03
2023-03-17T12:52:39.253Z,60.69
2023-03-17T12:55:13.646Z,59.67
2023-03-17T12:57:46.514Z,60.72
2023-03-17T13:00:28.464Z,59.56
2023-03-17T13:03:30.715Z,57.83
2023-03-17T13:06:01.495Z,59.51
2023-03-17T13:08:33.304Z,59.42
2023-03-17T13:11:27.365Z,57.95
2023-03-17T13:13:54.626Z,59.02
2023-03-17T13:16:37.764Z,59.48
2023-03-17T13:19:15.693Z,59.08
2023-03-17T13:22:17.976Z,58.01
2023-03-17T13:24:53.610Z,58.63
2023-03-17T13:27:30.245Z,57.67
2023-03-17T13:30:22.093Z,56.98
2023-03-17T13:32:57.564Z,57.82
2023-03-17T13:35:57.237Z,59.42
2023-03-17T13:38:48.556Z,58.37
2023-03-17T13:41:49.468Z,58.63
2023-03-17T13:44:56.953Z,57.83
2023-03-17T13:47:27.127Z,57.63
2023-03-17T13:50:00.878Z,57.11
2023-03-17T13:52:33.688Z,57.74
2023-03-17T13:55:18.505Z,57.06
2023-03-17T13:58:12.208Z,54.32
2023-03-17T14:00:44.323Z,56.89
2023-03-17T14:03:17.649Z,57.70
2023-03-17T14:05:50.993Z,54.71
2023-03-17T14:08:27.524Z,54.69
2023-03-17T14:10:59.434Z,55.25
2023-03-17T14:13:57.156Z,54.03
2023-03-17T14:16:29.847Z,55.65
2023-03-17T14:19:20.799Z,55.84
2023-03-17T14:21:48.488Z,56.28
2023-03-17T14:24:30.143Z,57.15
2023-03-17T14:26:57.730Z,57.89
2023-03-17T14:29:32.006Z,56.39
2023-03-17T14:32:15.172Z,55.83
2023-03-17T14:34:44.382Z,55.19
2023-03-17T14:37:12.842Z,55.63
2023-03-17T14:39:49.066Z,55.08
2023-03-17T14:42:20.093Z,55.95
2023-03-17T14:44:47.549Z,54.43
2023-03-17T14:47:23.005Z,54.43
2023-03-17T14:49:53.480Z,54.12
2023-03-17T14:52:27.968Z,54.10
2023-03-17T14:54:59.340Z,54.60
2023-03-17T14:57:31.491Z,54.10
2023-03-17T15:00:23.029Z,53.77
2023-03-17T15:02:58.860Z,54.29
2023-03-17T15:05:41.967Z,54.30
2023-03-17T15:08:48.267Z,54.22
2023-03-17T15:11:20.157Z,53.73
2023-03-17T15:13:48.754Z,55.40
2023-03-17T15:16:27.863Z,54.83
2023-03-17T15:19:06.109Z,54.97
2023-03-17T15:21:38.834Z,53.60
2023-03-17T15:24:23.205Z,54.03
2023-03-17T15:26:50.721Z,54.91
2023-03-17T15:29:18.545Z,55.14
2023-03-17T15:31:45.857Z,55.06
2023-03-17T15:34:15.474Z,55.75
2023-03-17T15:36:47.428Z,54.96
2023-03-17T15:39:15.065Z,55.13
2023-03-17T15:41:42.395Z,55.20
2023-03-17T15:44:09.912Z,54.78
2023-03-17T15:46:37.415Z,55.52
2023-03-17T15:49:10.789Z,55.45
2023-03-17T15:51:38.451Z,56.02
2023-03-17T15:54:06.012Z,55.41
2023-03-17T15:56:34.597Z,56.17
2023-03-17T15:59:02.881Z,55.76
2023-03-17T16:01:30.205Z,56.03
2023-03-17T16:03:57.744Z,56.19
2023-03-17T16:06:25.003Z,56.61
2023-03-17T16:08:52.564Z,56.34
2023-03-17T16:11:28.272Z,56.75
2023-03-17T16:13:57.363Z,56.71
2023-03-17T16:16:45.927Z,57.27
2023-03-17T16:19:20.862Z,57.27
2023-03-17T16:21:49.111Z,57.50
2023-03-17T16:24:22.908Z,57.32
2023-03-17T16:26:50.991Z,57.37
2023-03-17T16:29:21.021Z,57.66
2023-03-17T16:31:51.015Z,58.21
2023-03-17T16:34:21.474Z,57.91
2023-03-17T16:36:50.479Z,58.09
2023-03-17T16:39:22.566Z,57.43
2023-03-17T16:41:50.844Z,58.36
2023-03-17T16:44:20.600Z,57.80
2023-03-17T16:46:49.336Z,59.25
2023-03-17T16:49:19.405Z,57.56
2023-03-17T16:51:48.755Z,57.37
2023-03-17T16:54:17.184Z,57.55
2023-03-17T16:56:45.254Z,57.15
2023-03-17T16:59:19.969Z,56.87
2023-03-17T17:01:47.238Z,57.36
2023-03-17T17:04:14.841Z,56.27
2023-03-17T17:06:42.070Z,56.50
2023-03-17T17:09:09.629Z,55.19
2023-03-17T17:11:36.884Z,55.41
2023-03-17T17:14:04.449Z,55.42
2023-03-17T17:16:35.699Z,54.74
2023-03-17T17:19:04.394Z,55.46
2023-03-17T17:21:33.020Z,55.24
2023-03-17T17:24:00.607Z,55.77
2023-03-17T17:26:27.854Z,55.74
2023-03-17T17:28:55.440Z,55.06
2023-03-17T17:31:22.776Z,54.63
2023-03-17T17:33:50.476Z,54.94
2023-03-17T17:36:18.179Z,54.79
2023-03-17T17:38:45.931Z,55.41
2023-03-17T17:41:14.339Z,55.51
2023-03-17T17:43:42.265Z,55.20
2023-03-17T17:46:12.580Z,55.54
2023-03-17T17:48:40.445Z,55.78
2023-03-17T17:51:07.707Z,56.35
2023-03-17T17:53:35.372Z,56.68
2023-03-17T17:56:02.789Z,56.30
2023-03-17T17:58:30.648Z,55.77
2023-03-17T18:00:58.276Z,56.81
2023-03-17T18:03:26.832Z,56.54
2023-03-17T18:05:56.278Z,57.37
2023-03-17T18:08:25.619Z,56.70
2023-03-17T18:10:53.411Z,57.18
2023-03-17T18:13:21.067Z,56.97
2023-03-17T18:15:48.390Z,57.67
2023-03-17T18:18:16.115Z,57.27
2023-03-17T18:20:43.344Z,57.33
2023-03-17T18:23:11.267Z,59.34
2023-03-17T18:25:38.491Z,59.21
2023-03-17T18:28:06.407Z,59.53
2023-03-17T18:30:35.314Z,59.76
2023-03-17T18:33:23.206Z,60.38
2023-03-17T18:35:52.245Z,60.69
2023-03-17T18:38:19.873Z,61.41
2023-03-17T18:40:47.116Z,62.18
2023-03-17T18:43:14.700Z,62.44
2023-03-17T18:45:42.001Z,62.26
2023-03-17T18:48:09.629Z,62.53
2023-03-17T18:50:37.193Z,63.90
2023-03-17T18:53:04.985Z,63.65
2023-03-17T18:55:32.461Z,63.97
2023-03-17T18:58:00.080Z,63.20
2023-03-17T19:00:27.428Z,64.65
2023-03-17T19:02:55.087Z,64.64
2023-03-17T19:05:22.464Z,64.88
2023-03-17T19:07:50.072Z,65.73
2023-03-17T19:10:17.945Z,64.23
2023-03-17T19:12:47.266Z,64.96
2023-03-17T19:15:14.726Z,65.49
2023-03-17T19:17:42.408Z,66.04
2023-03-17T19:20:10.904Z,66.28
2023-03-17T19:22:38.454Z,66.49
2023-03-17T19:25:06.389Z,65.78
2023-03-17T19:27:33.941Z,66.20
2023-03-17T19:30:01.182Z,67.88
2023-03-17T19:32:28.831Z,67.18
2023-03-17T19:34:56.210Z,67.37
2023-03-17T19:37:23.749Z,67.79
2023-03-17T19:39:51.135Z,66.54
2023-03-17T19:42:18.737Z,66.24
2023-03-17T19:44:46.053Z,67.23
2023-03-17T19:47:13.618Z,67.44
2023-03-17T19:49:41.960Z,68.67
2023-03-17T19:52:10.406Z,68.18
2023-03-17T19:54:45.913Z,68.16
2023-03-17T19:57:14.108Z,68.13
2023-03-17T19:59:41.520Z,67.95
2023-03-17T20:02:13.180Z,68.77
2023-03-17T20:04:40.931Z,68.20
2023-03-17T20:07:09.581Z,67.01
2023-03-17T20:09:38.074Z,68.36
2023-03-17T20:12:06.010Z,68.25
2023-03-17T20:14:33.269Z,68.47
2023-03-17T20:17:00.969Z,68.29
2023-03-17T20:19:29.252Z,67.38
2023-03-17T20:21:58.594Z,67.47
2023-03-17T20:24:27.176Z,67.06
2023-03-17T20:26:57.354Z,67.77
2023-03-17T20:29:25.874Z,67.72
2023-03-17T20:31:53.700Z,67.33
2023-03-17T20:34:21.534Z,67.06
2023-03-17T20:36:49.531Z,67.45
2023-03-17T20:39:19.975Z,66.30
2023-03-17T20:41:51.666Z,67.21
2023-03-17T20:44:19.834Z,67.10
2023-03-17T20:46:47.806Z,66.91
2023-03-17T20:49:15.884Z,65.83
2023-03-17T20:51:44.051Z,65.88
2023-03-17T20:54:11.445Z,66.03
2023-03-17T20:56:39.743Z,66.12
2023-03-17T20:59:09.692Z,65.82
2023-03-17T21:01:38.855Z,66.47
2023-03-17T21:04:09.121Z,64.48
2023-03-17T21:06:37.564Z,65.31
2023-03-17T21:09:06.057Z,64.83
2023-03-17T21:11:34.040Z,64.72
2023-03-17T21:14:03.467Z,64.77
2023-03-17T21:16:31.196Z,65.78
2023-03-17T21:18:58.966Z,64.77
2023-03-17T21:21:27.383Z,66.35
2023-03-17T21:23:55.064Z,65.59
2023-03-17T21:26:23.042Z,65.03
2023-03-17T21:28:50.572Z,65.74
2023-03-17T21:31:18.408Z,65.85
2023-03-17T21:33:48.651Z,65.52
2023-03-17T21:36:16.992Z,64.91
2023-03-17T21:38:44.231Z,65.46
2023-03-17T21:41:22.414Z,64.35
2023-03-17T21:43:50.619Z,64.43
2023-03-17T21:46:18.344Z,64.95
2023-03-17T21:48:45.582Z,64.51
2023-03-17T21:51:13.174Z,64.38
2023-03-17T21:53:40.437Z,65.05
2023-03-17T21:56:08.914Z,64.32
2023-03-17T21:58:36.697Z,65.09
2023-03-17T22:01:04.601Z,63.73
2023-03-17T22:03:32.445Z,64.28
2023-03-17T22:06:00.312Z,64.53
2023-03-17T22:08:27.880Z,64.12
2023-03-17T22:10:55.672Z,63.17
2023-03-17T22:13:22.952Z,62.34
2023-03-17T22:15:50.552Z,62.38
2023-03-17T22:18:18.047Z,62.38
2023-03-17T22:20:45.627Z,62.06
2023-03-17T22:23:13.131Z,61.38
2023-03-17T22:25:40.701Z,61.15
2023-03-17T22:28:08.700Z,62.01
2023-03-17T22:30:39.504Z,63.25
2023-03-17T22:33:07.705Z,62.88
2023-03-17T22:35:36.647Z,62.25
2023-03-17T22:38:05.138Z,62.57
2023-03-17T22:40:33.931Z,62.57
2023-03-17T22:43:02.249Z,62.21
2023-03-17T22:45:29.863Z,61.09
2023-03-17T22:47:57.367Z,61.48
2023-03-17T22:50:25.472Z,62.13
2023-03-17T22:52:52.734Z,61.31
2023-03-17T22:55:20.238Z,61.99
2023-03-17T22:57:47.629Z,62.06
2023-03-17T23:00:17.195Z,61.44
2023-03-17T23:02:46.533Z,61.41
2023-03-17T23:05:14.655Z,61.26
2023-03-17T23:07:50.255Z,61.63
2023-03-17T23:10:25.388Z,61.46
2023-03-17T23:12:53.180Z,61.02
2023-03-17T23:15:21.531Z,61.88
2023-03-17T23:17:48.852Z,60.81
2023-03-17T23:20:16.865Z,60.09
2023-03-17T23:22:44.123Z,61.15
2023-03-17T23:25:13.651Z,61.10
2023-03-17T23:27:41.462Z,60.88
2023-03-17T23:30:11.719Z,61.54
2023-03-17T23:32:40.831Z,60.10
2023-03-17T23:35:09.500Z,60.43
2023-03-17T23:37:37.423Z,59.28
2023-03-17T23:40:06.528Z,59.77
2023-03-17T23:42:33.929Z,59.31
2023-03-17T23:45:02.629Z,60.10
2023-03-17T23:47:30.668Z,60.15
2023-03-17T23:49:58.219Z,60.25
2023-03-17T23:52:25.780Z,59.77
2023-03-17T23:54:54.082Z,59.37
2023-03-17T23:57:21.737Z,59.33
2023-03-17T23:59:49.435Z,60.29
